Time;durP1;ratioP1;P1;durP2;ratioP2;P2;SDS_P1;SDS_P2;PMS_P1;PMS_P2;Temp;Humidity;BMP_temperature;BMP_pressure;BME280_temperature;BME280_humidity;BME280_pressure;Samples;Min_cycle;Max_cycle;Signal;HPM_P1;HPM_P2
2022/08/15 00:00:14;;;;;;;13.50;7.43;;;25.60;56.50;;;;;;5027419;28;20037;-68
2022/08/15 00:02:42;;;;;;;13.98;7.80;;;25.60;56.50;;;;;;5027380;28;20021;-68
2022/08/15 00:05:08;;;;;;;13.25;7.25;;;25.60;56.50;;;;;;5025978;28;20116;-68
2022/08/15 00:07:34;;;;;;;13.43;7.80;;;25.60;56.90;;;;;;5027459;28;20033;-68
2022/08/15 00:10:00;;;;;;;12.88;6.55;;;25.60;56.50;;;;;;5027361;28;20030;-68
2022/08/15 00:12:25;;;;;;;14.30;7.10;;;25.50;56.40;;;;;;5025479;28;20033;-68
2022/08/15 00:14:52;;;;;;;14.70;7.38;;;25.50;56.40;;;;;;5027537;28;20076;-68
2022/08/15 00:17:17;;;;;;;13.30;7.10;;;25.60;56.50;;;;;;5026346;28;20092;-68
2022/08/15 00:19:47;;;;;;;12.45;7.35;;;25.50;56.50;;;;;;5025908;28;20025;-68
2022/08/15 00:22:17;;;;;;;12.88;7.18;;;25.50;56.40;;;;;;5026471;28;20243;-68
2022/08/15 00:24:43;;;;;;;11.73;6.65;;;25.50;56.50;;;;;;5026901;28;20018;-68
2022/08/15 00:27:09;;;;;;;14.95;7.28;;;25.50;56.50;;;;;;5026807;28;20160;-68
2022/08/15 00:29:35;;;;;;;11.18;7.20;;;25.50;56.50;;;;;;5026561;28;20101;-68
2022/08/15 00:32:03;;;;;;;12.07;6.70;;;25.50;56.50;;;;;;5025517;28;20045;-68
2022/08/15 00:34:28;;;;;;;11.30;7.35;;;25.50;56.50;;;;;;5027052;28;20028;-68
2022/08/15 00:36:54;;;;;;;11.70;7.07;;;25.50;56.50;;;;;;5026499;28;20033;-68
2022/08/15 00:39:21;;;;;;;17.05;7.40;;;25.50;56.50;;;;;;5026093;28;20044;-68
2022/08/15 00:41:48;;;;;;;11.45;6.78;;;25.50;56.40;;;;;;5027083;28;20017;-68
2022/08/15 00:44:21;;;;;;;11.00;7.18;;;25.50;56.40;;;;;;5026836;28;20048;-68
2022/08/15 00:46:51;;;;;;;13.05;7.15;;;25.50;56.50;;;;;;5026236;28;20032;-68
2022/08/15 00:49:17;;;;;;;14.65;7.50;;;25.40;56.40;;;;;;5026151;28;20068;-68
2022/08/15 00:51:47;;;;;;;11.48;6.97;;;25.40;56.40;;;;;;5026413;28;20049;-68
2022/08/15 00:54:28;;;;;;;12.43;6.97;;;25.40;56.40;;;;;;5024571;28;20041;-69
2022/08/15 00:56:58;;;;;;;11.15;7.13;;;25.40;56.40;;;;;;5026164;28;20667;-68
2022/08/15 00:59:26;;;;;;;11.00;6.53;;;25.40;56.40;;;;;;5023077;28;20060;-68
2022/08/15 01:01:52;;;;;;;10.73;6.97;;;25.40;56.40;;;;;;5008939;28;20030;-69
2022/08/15 01:04:18;;;;;;;11.80;7.07;;;25.40;56.50;;;;;;5026488;28;20410;-68
2022/08/15 01:06:45;;;;;;;11.40;6.80;;;25.40;56.40;;;;;;5026264;28;20552;-68
2022/08/15 01:09:11;;;;;;;11.90;7.07;;;25.40;56.40;;;;;;5025618;28;20120;-69
2022/08/15 01:11:56;;;;;;;11.43;6.75;;;25.40;56.40;;;;;;5026983;28;20144;-68
2022/08/15 01:14:22;;;;;;;11.82;6.47;;;25.40;56.50;;;;;;5035813;28;20564;-68
2022/08/15 01:16:48;;;;;;;11.38;7.22;;;25.40;56.40;;;;;;5025611;28;20084;-68
2022/08/15 01:19:20;;;;;;;12.90;7.03;;;25.40;56.50;;;;;;5026065;28;20029;-68
2022/08/15 01:22:15;;;;;;;11.93;6.47;;;25.40;56.40;;;;;;5026876;28;20053;-69
2022/08/15 01:25:09;;;;;;;10.27;6.65;;;25.40;56.50;;;;;;5024686;28;20035;-68
2022/08/15 01:27:41;;;;;;;11.38;6.95;;;25.40;56.50;;;;;;5023026;28;20029;-68
2022/08/15 01:30:09;;;;;;;12.82;6.88;;;25.40;56.50;;;;;;5025363;28;20036;-68
2022/08/15 01:32:34;;;;;;;10.68;6.55;;;25.40;56.50;;;;;;5022482;28;20033;-68
2022/08/15 01:35:03;;;;;;;12.20;6.70;;;25.40;56.50;;;;;;5026267;28;20036;-68
2022/08/15 01:37:29;;;;;;;10.88;6.80;;;25.40;56.50;;;;;;5048543;28;20120;-68
2022/08/15 01:40:04;;;;;;;11.68;7.05;;;25.40;56.50;;;;;;5022560;28;20029;-68
2022/08/15 01:42:36;;;;;;;11.13;7.10;;;25.30;56.40;;;;;;5045330;28;20022;-68
2022/08/15 01:45:14;;;;;;;11.55;6.78;;;25.40;56.60;;;;;;5026256;28;20095;-68
2022/08/15 01:48:09;;;;;;;13.80;7.15;;;25.30;56.50;;;;;;5024231;28;20086;-68
2022/08/15 01:50:39;;;;;;;11.63;7.32;;;25.40;56.60;;;;;;5021847;28;20068;-68
2022/08/15 01:53:21;;;;;;;9.63;6.30;;;25.30;56.50;;;;;;5025014;28;20056;-68
2022/08/15 01:55:57;;;;;;;11.02;6.75;;;25.30;56.50;;;;;;5008930;28;20029;-68
2022/08/15 01:58:23;;;;;;;10.88;6.50;;;25.30;56.50;;;;;;5025341;28;20729;-68
2022/08/15 02:00:50;;;;;;;11.15;6.75;;;25.30;56.50;;;;;;5024289;28;20022;-68
2022/08/15 02:03:16;;;;;;;11.00;6.63;;;25.30;56.60;;;;;;5029391;28;20120;-68
2022/08/15 02:05:41;;;;;;;11.55;7.13;;;25.30;56.60;;;;;;5028901;28;20097;-68
2022/08/15 02:08:07;;;;;;;11.43;6.63;;;25.30;56.70;;;;;;5029104;28;20033;-68
2022/08/15 02:10:33;;;;;;;10.60;6.32;;;25.30;56.60;;;;;;5029242;28;20481;-67
2022/08/15 02:12:59;;;;;;;11.82;6.80;;;25.30;56.60;;;;;;5028281;28;20077;-68
2022/08/15 02:15:25;;;;;;;10.73;6.28;;;25.30;56.60;;;;;;5029605;28;20116;-68
2022/08/15 02:17:51;;;;;;;10.65;6.53;;;25.30;56.60;;;;;;5028402;28;20117;-68
2022/08/15 02:20:17;;;;;;;9.25;6.70;;;25.30;56.60;;;;;;5029415;28;20029;-68
2022/08/15 02:22:43;;;;;;;12.15;6.30;;;25.30;56.60;;;;;;5028482;28;20026;-68
2022/08/15 02:25:08;;;;;;;10.13;6.60;;;25.30;56.70;;;;;;5029410;28;20017;-68
2022/08/15 02:27:36;;;;;;;11.00;7.28;;;25.30;56.60;;;;;;5028622;28;20080;-69
2022/08/15 02:30:09;;;;;;;10.98;6.90;;;25.30;56.80;;;;;;5027028;28;20055;-68
2022/08/15 02:32:38;;;;;;;12.13;6.80;;;25.20;56.70;;;;;;5026858;28;20045;-68
2022/08/15 02:35:05;;;;;;;11.40;7.00;;;25.20;56.70;;;;;;5029293;28;20072;-68
2022/08/15 02:37:30;;;;;;;10.82;6.88;;;25.20;56.80;;;;;;5029390;28;20025;-68
2022/08/15 02:39:56;;;;;;;10.50;6.47;;;25.20;56.70;;;;;;5028319;28;20033;-68
2022/08/15 02:42:22;;;;;;;9.77;6.57;;;25.20;56.70;;;;;;5028351;28;20032;-68
2022/08/15 02:44:50;;;;;;;10.52;6.70;;;25.20;56.70;;;;;;5028105;28;20028;-68
2022/08/15 02:47:18;;;;;;;10.35;6.88;;;25.20;56.60;;;;;;5028717;28;20410;-68
2022/08/15 02:49:44;;;;;;;10.65;6.72;;;25.20;56.70;;;;;;5028609;28;20017;-68
2022/08/15 02:52:10;;;;;;;9.68;6.25;;;25.20;56.70;;;;;;5028961;28;20069;-68
2022/08/15 02:54:36;;;;;;;11.43;6.90;;;25.20;56.80;;;;;;5026357;28;20048;-68
2022/08/15 02:57:02;;;;;;;9.43;6.47;;;25.20;56.70;;;;;;5027939;28;20525;-68
2022/08/15 02:59:28;;;;;;;10.18;6.45;;;25.20;56.80;;;;;;5027664;28;20547;-68
2022/08/15 03:01:56;;;;;;;10.75;7.10;;;25.20;56.80;;;;;;5028831;28;20044;-68
2022/08/15 03:04:23;;;;;;;11.02;6.50;;;25.20;56.80;;;;;;5026026;28;20040;-68
2022/08/15 03:06:50;;;;;;;9.77;6.30;;;25.20;56.80;;;;;;5027700;28;20099;-68
2022/08/15 03:09:16;;;;;;;12.13;6.70;;;25.20;56.90;;;;;;5027344;28;20033;-68
2022/08/15 03:11:43;;;;;;;8.73;6.20;;;25.20;56.90;;;;;;5027408;28;20037;-69
2022/08/15 03:14:19;;;;;;;11.25;7.03;;;25.20;56.80;;;;;;5052712;28;20075;-68
2022/08/15 03:16:46;;;;;;;10.48;6.72;;;25.20;56.80;;;;;;5028825;28;20123;-68
2022/08/15 03:19:16;;;;;;;9.05;6.45;;;25.20;56.80;;;;;;5028802;28;20037;-68
2022/08/15 03:21:45;;;;;;;10.10;6.68;;;25.20;56.80;;;;;;5027544;28;20021;-68
2022/08/15 03:24:12;;;;;;;9.70;6.60;;;25.20;56.80;;;;;;5027262;28;20109;-68
2022/08/15 03:26:38;;;;;;;9.20;6.00;;;25.20;56.80;;;;;;5028524;28;20033;-68
2022/08/15 03:29:04;;;;;;;10.45;6.65;;;25.20;56.90;;;;;;5027732;28;20029;-68
2022/08/15 03:31:30;;;;;;;10.85;6.40;;;25.20;56.80;;;;;;5027494;28;20045;-68
2022/08/15 03:33:55;;;;;;;8.98;6.43;;;25.20;56.80;;;;;;5028521;28;20120;-68
2022/08/15 03:36:21;;;;;;;11.02;6.43;;;25.20;56.90;;;;;;5028039;28;20925;-68
2022/08/15 03:38:47;;;;;;;10.35;6.88;;;25.20;57.00;;;;;;5027328;28;20017;-69
2022/08/15 03:41:13;;;;;;;9.13;6.18;;;25.20;57.00;;;;;;5027916;28;20024;-67
2022/08/15 03:43:39;;;;;;;10.63;6.35;;;25.20;57.20;;;;;;5026384;28;20466;-68
2022/08/15 03:46:10;;;;;;;11.10;6.80;;;25.20;57.20;;;;;;5028201;28;20057;-68
2022/08/15 03:48:41;;;;;;;10.55;6.40;;;25.20;57.00;;;;;;5025603;28;20037;-67
2022/08/15 03:51:08;;;;;;;9.80;6.65;;;25.20;57.10;;;;;;5028999;28;20025;-68
2022/08/15 03:53:37;;;;;;;8.98;6.45;;;25.20;57.10;;;;;;5026457;28;20052;-68
2022/08/15 03:56:06;;;;;;;9.35;6.25;;;25.20;56.90;;;;;;5024108;28;20034;-68
2022/08/15 03:58:32;;;;;;;9.82;6.65;;;25.20;56.90;;;;;;5024995;28;20124;-68
2022/08/15 04:00:58;;;;;;;11.32;6.50;;;25.20;56.90;;;;;;5028722;28;20608;-68
2022/08/15 04:03:26;;;;;;;9.85;6.75;;;25.10;56.80;;;;;;5028755;28;20041;-68
2022/08/15 04:05:54;;;;;;;9.77;6.63;;;25.10;56.80;;;;;;5026906;28;20030;-68
2022/08/15 04:08:21;;;;;;;9.68;6.38;;;25.10;56.80;;;;;;5024270;28;20486;-68
2022/08/15 04:10:49;;;;;;;9.52;6.50;;;25.10;56.80;;;;;;5024967;28;20624;-68
2022/08/15 04:13:15;;;;;;;10.50;6.30;;;25.10;56.60;;;;;;5025295;28;20045;-67
2022/08/15 04:15:41;;;;;;;9.55;6.60;;;25.10;56.60;;;;;;5026564;28;20600;-68
2022/08/15 04:18:07;;;;;;;9.80;6.38;;;25.10;56.70;;;;;;5026307;28;20039;-68
2022/08/15 04:20:33;;;;;;;10.70;6.57;;;25.10;56.60;;;;;;5026467;28;20040;-68
2022/08/15 04:22:58;;;;;;;9.95;6.35;;;25.10;56.70;;;;;;5025453;28;20029;-68
2022/08/15 04:25:27;;;;;;;9.60;6.40;;;25.10;56.70;;;;;;5024940;28;20075;-68
2022/08/15 04:27:54;;;;;;;11.32;6.90;;;25.10;56.80;;;;;;5023037;28;20063;-68
2022/08/15 04:30:24;;;;;;;10.43;6.30;;;25.10;56.80;;;;;;5025842;28;20021;-68
2022/08/15 04:32:55;;;;;;;9.15;6.30;;;25.10;56.80;;;;;;5025258;28;20033;-68
2022/08/15 04:35:21;;;;;;;11.00;6.30;;;25.10;56.70;;;;;;5023995;28;20114;-68
2022/08/15 04:37:47;;;;;;;9.60;6.22;;;25.10;56.80;;;;;;5025526;28;20112;-68
2022/08/15 04:40:14;;;;;;;10.25;6.20;;;25.00;56.70;;;;;;5025257;28;20041;-68
2022/08/15 04:42:50;;;;;;;8.65;6.00;;;25.10;56.80;;;;;;5023382;28;20037;-68
2022/08/15 04:45:16;;;;;;;9.95;6.40;;;25.00;56.70;;;;;;5025689;28;20490;-67
2022/08/15 04:47:42;;;;;;;10.00;6.38;;;25.00;56.70;;;;;;5023406;28;20028;-68
2022/08/15 04:50:08;;;;;;;12.48;6.03;;;25.00;56.80;;;;;;5024644;28;20075;-68
2022/08/15 04:52:33;;;;;;;11.05;6.50;;;25.10;56.80;;;;;;5026135;28;20041;-66
2022/08/15 04:54:59;;;;;;;8.77;6.15;;;25.10;56.80;;;;;;5019735;28;20058;-68
2022/08/15 04:57:25;;;;;;;10.13;6.50;;;25.00;56.70;;;;;;5025523;28;20052;-68
2022/08/15 04:59:50;;;;;;;10.95;6.88;;;25.10;56.90;;;;;;5025088;28;20495;-68
2022/08/15 05:02:23;;;;;;;10.43;6.30;;;25.00;56.70;;;;;;5025214;28;20032;-68
2022/08/15 05:04:49;;;;;;;8.65;6.07;;;25.00;56.70;;;;;;5054124;28;20030;-68
2022/08/15 05:07:15;;;;;;;11.45;6.38;;;25.00;56.70;;;;;;5025407;28;20126;-67
2022/08/15 05:09:40;;;;;;;10.02;6.15;;;25.00;56.80;;;;;;5023047;28;20048;-68
2022/08/15 05:12:06;;;;;;;10.20;6.32;;;25.00;56.70;;;;;;5024756;28;20045;-68
2022/08/15 05:14:32;;;;;;;10.32;6.22;;;25.00;56.80;;;;;;5024114;28;20025;-68
2022/08/15 05:16:57;;;;;;;9.65;6.03;;;25.00;56.70;;;;;;5022602;28;20053;-68
2022/08/15 05:19:23;;;;;;;9.52;5.72;;;25.00;56.80;;;;;;5024549;28;20030;-68
2022/08/15 05:21:49;;;;;;;11.07;6.10;;;25.00;56.80;;;;;;5024186;28;20017;-68
2022/08/15 05:24:14;;;;;;;8.50;5.78;;;25.00;56.80;;;;;;5022477;28;20087;-68
2022/08/15 05:26:40;;;;;;;8.88;6.13;;;25.00;56.80;;;;;;5025759;28;20044;-68
2022/08/15 05:29:09;;;;;;;8.57;5.78;;;25.00;56.80;;;;;;5025492;28;20040;-68
2022/08/15 05:31:35;;;;;;;10.43;5.97;;;25.00;56.80;;;;;;5022791;28;20037;-68
2022/08/15 05:34:01;;;;;;;8.57;5.90;;;25.00;56.80;;;;;;5022675;28;20033;-68
2022/08/15 05:36:27;;;;;;;8.77;6.50;;;25.00;56.80;;;;;;5024525;28;20394;-68
2022/08/15 05:38:58;;;;;;;8.73;5.60;;;25.00;56.70;;;;;;5024604;28;20052;-68
2022/08/15 05:41:32;;;;;;;9.27;5.95;;;25.00;56.90;;;;;;5025267;28;20036;-67
2022/08/15 05:43:58;;;;;;;8.75;6.05;;;25.00;56.80;;;;;;5023686;28;20576;-68
2022/08/15 05:46:27;;;;;;;9.40;6.10;;;25.00;56.80;;;;;;5023893;28;20114;-68
2022/08/15 05:49:09;;;;;;;8.70;6.15;;;25.00;56.90;;;;;;5021161;28;20037;-68
2022/08/15 05:52:24;;;;;;;8.98;5.85;;;25.00;56.90;;;;;;5022728;28;20030;-68
2022/08/15 05:55:17;;;;;;;9.38;5.75;;;25.00;56.90;;;;;;4965714;28;20043;-68
2022/08/15 05:57:42;;;;;;;12.25;5.82;;;24.90;56.90;;;;;;4964657;28;20031;-68
2022/08/15 06:00:11;;;;;;;8.23;6.32;;;24.90;56.80;;;;;;4967796;28;20102;-68
2022/08/15 06:02:40;;;;;;;9.82;6.10;;;25.00;56.90;;;;;;4934732;28;20061;-68
2022/08/15 06:05:15;;;;;;;9.73;6.50;;;24.90;56.80;;;;;;4953632;28;20027;-68
2022/08/15 06:07:45;;;;;;;9.73;6.18;;;24.90;56.90;;;;;;4964076;28;20030;-68
2022/08/15 06:10:25;;;;;;;8.00;5.47;;;25.00;56.90;;;;;;4947708;28;20027;-68
2022/08/15 06:13:18;;;;;;;8.60;5.93;;;24.90;56.90;;;;;;4949914;28;20051;-68
2022/08/15 06:15:47;;;;;;;8.80;5.85;;;24.90;56.90;;;;;;4912867;29;20063;-68
2022/08/15 06:18:13;;;;;;;8.77;5.72;;;24.90;57.00;;;;;;4909806;29;20126;-68
2022/08/15 06:21:37;;;;;;;8.50;5.80;;;24.90;56.90;;;;;;4894407;29;20044;-68
2022/08/15 06:24:10;;;;;;;8.52;5.95;;;24.90;56.90;;;;;;4896481;29;20036;-68
2022/08/15 06:27:09;;;;;;;9.13;6.00;;;24.90;57.00;;;;;;4894560;29;20048;-68
2022/08/15 06:30:01;;;;;;;8.95;5.88;;;24.90;56.90;;;;;;4895181;29;20252;-68
2022/08/15 06:32:32;;;;;;;9.20;5.72;;;24.90;56.90;;;;;;4916354;29;20056;-68
2022/08/15 06:35:51;;;;;;;8.48;5.75;;;24.90;56.90;;;;;;4930640;29;20135;-68
2022/08/15 06:38:44;;;;;;;8.10;5.82;;;24.90;57.00;;;;;;4922058;29;20047;-68
2022/08/15 06:41:27;;;;;;;9.25;6.07;;;24.90;57.00;;;;;;4949609;28;20418;-68
2022/08/15 06:43:53;;;;;;;7.70;5.55;;;24.90;57.00;;;;;;4935504;29;20039;-68
2022/08/15 06:46:21;;;;;;;8.82;6.00;;;24.90;58.00;;;;;;4947539;28;20260;-68
2022/08/15 06:48:47;;;;;;;8.40;6.10;;;24.90;57.00;;;;;;4938793;29;20039;-68
2022/08/15 06:51:13;;;;;;;7.90;5.70;;;24.90;56.90;;;;;;4953135;28;20238;-68
2022/08/15 06:53:50;;;;;;;8.85;5.70;;;24.90;57.00;;;;;;4972903;28;20173;-67
2022/08/15 06:56:16;;;;;;;8.85;5.97;;;24.90;57.00;;;;;;4984986;28;22353;-66
2022/08/15 06:58:58;;;;;;;9.75;6.43;;;24.90;57.10;;;;;;4985725;28;20042;-66
2022/08/15 07:01:28;;;;;;;13.25;8.23;;;24.90;57.00;;;;;;4985559;28;20499;-66
2022/08/15 07:04:15;;;;;;;11.40;8.20;;;24.80;57.30;;;;;;4971134;28;20030;-65
2022/08/15 07:06:45;;;;;;;11.23;8.55;;;24.90;57.50;;;;;;4986426;28;20031;-66
2022/08/15 07:09:40;;;;;;;13.02;9.45;;;24.80;57.60;;;;;;4971590;28;20121;-66
2022/08/15 07:12:19;;;;;;;;;;;24.80;57.70;;;;;;4986737;28;20127;-66
2022/08/15 07:14:53;;;;;;;13.85;9.63;;;24.80;57.80;;;;;;5041810;28;19939;-66
2022/08/15 07:17:33;;;;;;;;;;;24.80;57.90;;;;;;5024553;28;20045;-66
2022/08/15 07:19:58;;;;;;;10.65;8.18;;;24.80;58.00;;;;;;5029176;28;19948;-66
2022/08/15 07:22:24;;;;;;;12.73;9.68;;;24.80;58.00;;;;;;5026265;28;20472;-66
2022/08/15 07:24:53;;;;;;;12.95;9.77;;;24.80;58.20;;;;;;5027956;28;20398;-67
2022/08/15 07:27:31;;;;;;;13.57;10.32;;;24.80;58.20;;;;;;5050212;28;20033;-66
2022/08/15 07:29:59;;;;;;;13.45;9.70;;;24.80;58.20;;;;;;5027173;28;20029;-66
2022/08/15 07:32:50;;;;;;;13.13;9.48;;;24.80;58.30;;;;;;5020654;28;20042;-66
2022/08/15 07:35:25;;;;;;;12.45;9.50;;;24.80;58.30;;;;;;5021811;28;20029;-66
2022/08/15 07:38:06;;;;;;;13.93;9.50;;;24.80;58.30;;;;;;5022934;28;20020;-67
2022/08/15 07:40:36;;;;;;;12.00;8.57;;;24.80;58.30;;;;;;5023668;28;20065;-68
2022/08/15 07:43:05;;;;;;;12.40;8.70;;;24.90;58.30;;;;;;5025906;28;20030;-67
2022/08/15 07:45:33;;;;;;;10.30;7.60;;;24.90;58.20;;;;;;5049415;28;20053;-67
2022/08/15 07:48:02;;;;;;;9.93;7.50;;;24.90;58.30;;;;;;5027422;28;20068;-67
2022/08/15 07:50:38;;;;;;;12.15;7.97;;;24.90;58.20;;;;;;5025617;28;20620;-67
2022/08/15 07:53:10;;;;;;;11.23;7.78;;;24.90;58.10;;;;;;5027527;28;20037;-68
2022/08/15 07:55:36;;;;;;;10.70;7.57;;;24.90;58.10;;;;;;5027183;28;20044;-67
2022/08/15 07:58:03;;;;;;;10.93;7.90;;;24.90;58.10;;;;;;5028867;28;20288;-67
2022/08/15 08:00:30;;;;;;;10.90;7.32;;;24.90;58.20;;;;;;5026771;28;20044;-68
2022/08/15 08:03:32;;;;;;;11.73;7.38;;;24.90;58.10;;;;;;5026516;28;20649;-67
2022/08/15 08:06:17;;;;;;;11.50;8.05;;;24.90;58.10;;;;;;4984516;28;20594;-67
2022/08/15 08:08:59;;;;;;;11.80;7.45;;;24.90;58.00;;;;;;4983919;28;20509;-67
2022/08/15 08:11:50;;;;;;;12.13;7.75;;;25.00;58.10;;;;;;4953907;28;20021;-67
2022/08/15 08:14:38;;;;;;;10.40;7.32;;;25.00;58.00;;;;;;4984842;28;20049;-67
2022/08/15 08:17:30;;;;;;;11.18;6.95;;;25.00;58.10;;;;;;4987011;28;20054;-67
2022/08/15 08:20:19;;;;;;;12.82;7.35;;;25.00;58.10;;;;;;4970052;28;20043;-67
2022/08/15 08:22:54;;;;;;;10.15;6.97;;;25.00;58.00;;;;;;4968861;28;20104;-67
2022/08/15 08:25:27;;;;;;;10.30;6.97;;;25.00;58.10;;;;;;4988570;28;20034;-67
2022/08/15 08:27:57;;;;;;;9.15;6.85;;;25.00;58.10;;;;;;4966531;28;22661;-68
2022/08/15 08:30:25;;;;;;;15.65;8.88;;;25.00;57.70;;;;;;4960243;28;20041;-67
2022/08/15 08:32:57;;;;;;;16.25;10.48;;;24.90;58.40;;;;;;4983136;28;20216;-67
2022/08/15 08:35:31;;;;;;;15.98;11.13;;;24.80;58.90;;;;;;4967239;28;20029;-67
2022/08/15 08:38:17;;;;;;;16.63;12.33;;;24.70;59.40;;;;;;4977675;28;20579;-67
2022/08/15 08:41:49;;;;;;;16.83;12.70;;;24.60;59.80;;;;;;5015660;28;20805;-67
2022/08/15 08:43:46;;;;;;;21.13;12.07;;;24.50;60.50;;;;;;5017813;28;20032;-68
2022/08/15 08:46:37;;;;;;;17.40;12.20;;;24.40;60.80;;;;;;5029958;28;20402;-68
2022/08/15 08:49:35;;;;;;;17.52;12.25;;;24.30;61.10;;;;;;5047077;28;20033;-67
2022/08/15 08:52:38;;;;;;;16.30;12.32;;;24.20;61.50;;;;;;5031259;28;20108;-68
2022/08/15 08:55:08;;;;;;;18.27;11.23;;;24.20;61.50;;;;;;5022775;28;20124;-68
2022/08/15 08:58:14;;;;;;;17.48;11.98;;;24.20;62.00;;;;;;5026761;28;20100;-68
2022/08/15 09:00:49;;;;;;;16.80;11.70;;;24.20;62.60;;;;;;5018285;28;20616;-68
2022/08/15 09:03:17;;;;;;;;;;;24.20;63.50;;;;;;5030897;28;20033;-67
2022/08/15 09:05:51;;;;;;;15.23;12.80;;;24.10;64.30;;;;;;5052739;28;19909;-67
2022/08/15 09:08:28;;;;;;;17.53;11.87;;;24.10;64.60;;;;;;5025969;28;20063;-68
2022/08/15 09:10:57;;;;;;;16.73;12.55;;;24.10;64.90;;;;;;5024186;28;20500;-67
2022/08/15 09:13:34;;;;;;;20.13;13.57;;;24.10;65.30;;;;;;5024280;28;20040;-67
2022/08/15 09:16:19;;;;;;;18.55;13.52;;;24.10;65.00;;;;;;5024626;28;20093;-66
2022/08/15 09:19:20;;;;;;;16.73;12.88;;;24.00;65.00;;;;;;5036935;28;20024;-71
2022/08/15 09:21:46;;;;;;;16.48;12.20;;;24.10;65.80;;;;;;4999516;28;20055;-67
2022/08/15 09:24:23;;;;;;;20.35;12.63;;;24.10;66.00;;;;;;4979468;28;20061;-69
2022/08/15 09:27:04;;;;;;;19.13;13.13;;;24.10;65.30;;;;;;4987437;28;20117;-66
2022/08/15 09:29:35;;;;;;;19.70;13.23;;;24.10;66.00;;;;;;4984761;28;20032;-67
2022/08/15 09:32:28;;;;;;;21.92;14.10;;;24.00;66.70;;;;;;5001907;28;20470;-65
2022/08/15 09:35:03;;;;;;;19.10;14.18;;;24.00;66.70;;;;;;5003409;28;20048;-67
2022/08/15 09:37:28;;;;;;;;;;;24.00;66.60;;;;;;5004467;28;20029;-67
2022/08/15 09:40:05;;;;;;;18.80;13.95;;;24.00;67.20;;;;;;5000009;28;20263;-66
2022/08/15 09:43:42;;;;;;;18.35;13.45;;;24.00;68.40;;;;;;4987153;28;20038;-69
2022/08/15 09:46:29;;;;;;;18.33;12.60;;;24.00;67.70;;;;;;4943189;28;20035;-65
2022/08/15 09:49:10;;;;;;;19.95;13.48;;;24.00;67.10;;;;;;4940472;28;20055;-68
2022/08/15 09:51:48;;;;;;;20.25;12.18;;;24.00;67.30;;;;;;4956375;28;20031;-67
2022/08/15 09:54:18;;;;;;;16.15;12.10;;;24.00;67.00;;;;;;4948840;28;20315;-67
2022/08/15 09:56:44;;;;;;;25.38;11.95;;;24.00;67.20;;;;;;4929131;28;20051;-66
2022/08/15 09:59:17;;;;;;;20.17;11.35;;;24.00;67.10;;;;;;4909627;29;20483;-66
2022/08/15 10:02:11;;;;;;;19.70;11.57;;;24.00;67.50;;;;;;4935523;29;20050;-67
2022/08/15 10:04:41;;;;;;;18.77;11.18;;;24.10;67.30;;;;;;4919668;28;20047;-66
2022/08/15 10:07:06;;;;;;;18.48;11.75;;;24.10;67.30;;;;;;4915864;29;20036;-67
2022/08/15 10:09:37;;;;;;;19.48;11.85;;;24.10;67.90;;;;;;4933594;29;20132;-67
2022/08/15 10:12:06;;;;;;;17.60;11.50;;;24.10;67.80;;;;;;4915143;29;20040;-67
2022/08/15 10:14:53;;;;;;;18.88;10.45;;;24.10;67.10;;;;;;4922722;29;20087;-66
2022/08/15 10:17:37;;;;;;;20.27;10.00;;;24.10;67.30;;;;;;4952885;28;20101;-67
2022/08/15 10:20:15;;;;;;;20.73;10.52;;;24.20;67.20;;;;;;4956719;28;20503;-67
2022/08/15 10:22:57;;;;;;;21.83;10.70;;;24.20;66.80;;;;;;4984542;28;20112;-67
2022/08/15 10:25:36;;;;;;;21.40;10.30;;;24.20;66.60;;;;;;4996468;28;20096;-67
2022/08/15 10:28:11;;;;;;;19.48;10.52;;;24.20;67.20;;;;;;4994590;28;20046;-68
2022/08/15 10:30:36;;;;;;;;;;;24.20;66.10;;;;;;4993967;28;20033;-67
2022/08/15 10:33:24;;;;;;;18.20;9.90;;;24.20;66.10;;;;;;4992075;28;19921;-67
2022/08/15 10:35:53;;;;;;;17.25;9.57;;;24.20;65.80;;;;;;4996112;28;20032;-67
2022/08/15 10:38:20;;;;;;;14.35;9.43;;;24.20;65.80;;;;;;4997000;28;20018;-67
2022/08/15 10:41:13;;;;;;;18.45;9.80;;;24.30;65.90;;;;;;4992818;28;20120;-67
2022/08/15 10:44:11;;;;;;;17.38;9.50;;;24.20;65.60;;;;;;4961178;28;20033;-67
2022/08/15 10:46:40;;;;;;;15.85;8.80;;;24.20;65.50;;;;;;4993380;28;20046;-67
2022/08/15 10:49:27;;;;;;;15.38;8.70;;;24.30;65.10;;;;;;4993258;28;20057;-67
2022/08/15 10:52:12;;;;;;;14.98;7.95;;;24.40;64.80;;;;;;4992405;28;20168;-67
2022/08/15 10:55:12;;;;;;;13.55;8.00;;;24.40;64.30;;;;;;4991184;28;20062;-66
2022/08/15 10:57:46;;;;;;;15.43;7.93;;;24.40;64.10;;;;;;5021532;28;20099;-67
2022/08/15 11:00:41;;;;;;;12.93;7.82;;;24.50;64.30;;;;;;5028001;28;20029;-67
2022/08/15 11:03:18;;;;;;;13.93;7.70;;;24.50;63.80;;;;;;5029061;28;20036;-67
2022/08/15 11:05:55;;;;;;;13.15;8.07;;;24.50;63.50;;;;;;5053326;28;20308;-65
2022/08/15 11:08:22;;;;;;;14.15;7.78;;;24.50;64.90;;;;;;5038926;28;20030;-67
2022/08/15 11:10:47;;;;;;;18.48;8.07;;;24.40;63.60;;;;;;5025423;28;20033;-67
2022/08/15 11:13:15;;;;;;;13.75;7.72;;;24.40;63.30;;;;;;5024490;28;20079;-67
2022/08/15 11:15:54;;;;;;;13.77;7.95;;;24.40;63.00;;;;;;5029790;28;20131;-66
2022/08/15 11:18:51;;;;;;;17.20;8.43;;;24.40;63.60;;;;;;5024327;28;20053;-67
2022/08/15 11:21:37;;;;;;;20.55;7.72;;;24.40;63.80;;;;;;5022867;28;20417;-67
2022/08/15 11:24:06;;;;;;;14.90;7.10;;;24.40;63.60;;;;;;5028126;28;20025;-68
2022/08/15 11:26:39;;;;;;;14.07;6.90;;;24.50;63.20;;;;;;5023716;28;20041;-68
2022/08/15 11:29:15;;;;;;;13.43;7.18;;;24.60;63.50;;;;;;5028054;28;20013;-68
2022/08/15 11:31:53;;;;;;;13.77;7.35;;;24.60;63.90;;;;;;5024095;28;20124;-69
2022/08/15 11:34:35;;;;;;;15.48;7.38;;;24.60;63.80;;;;;;5024603;28;20029;-69
2022/08/15 11:37:15;;;;;;;11.10;6.60;;;24.60;63.60;;;;;;5029271;28;20104;-68
2022/08/15 11:40:02;;;;;;;14.25;7.38;;;24.70;63.50;;;;;;5026520;28;20112;-69
2022/08/15 11:42:30;;;;;;;13.75;7.15;;;24.70;64.00;;;;;;5021842;28;20152;-69
2022/08/15 11:44:57;;;;;;;12.98;7.13;;;24.70;64.00;;;;;;5024242;28;20044;-69
2022/08/15 11:47:23;;;;;;;12.30;6.75;;;24.70;63.50;;;;;;5024170;28;20123;-68
2022/08/15 11:49:54;;;;;;;13.93;6.88;;;24.70;63.30;;;;;;5025307;28;20532;-68
2022/08/15 11:52:31;;;;;;;11.63;6.40;;;24.70;62.90;;;;;;5026529;28;20053;-68
2022/08/15 11:55:13;;;;;;;14.00;6.72;;;24.80;62.80;;;;;;5025653;28;20037;-68
2022/08/15 11:57:48;;;;;;;11.23;6.15;;;24.80;63.00;;;;;;5026497;28;20060;-68
2022/08/15 12:00:35;;;;;;;16.17;7.18;;;24.80;62.70;;;;;;5028114;28;20021;-70
2022/08/15 12:03:18;;;;;;;13.95;6.75;;;24.80;62.70;;;;;;5024491;28;20120;-70
2022/08/15 12:05:46;;;;;;;12.75;6.53;;;24.80;62.30;;;;;;5026261;28;20108;-70
2022/08/15 12:08:12;;;;;;;14.73;6.57;;;24.90;62.20;;;;;;5019389;28;20045;-70
2022/08/15 12:10:40;;;;;;;11.15;6.53;;;24.90;62.00;;;;;;5026888;28;20100;-71
2022/08/15 12:13:08;;;;;;;13.65;6.60;;;24.90;62.00;;;;;;5025055;28;20407;-68
2022/08/15 12:15:33;;;;;;;11.75;6.28;;;24.90;61.60;;;;;;5025530;28;20029;-72
2022/08/15 12:18:22;;;;;;;13.15;6.20;;;24.90;61.50;;;;;;5025126;28;20041;-68
2022/08/15 12:21:00;;;;;;;12.77;6.38;;;25.00;60.60;;;;;;5024917;28;20025;-68
2022/08/15 12:23:30;;;;;;;15.15;6.70;;;25.00;60.80;;;;;;5025901;28;20026;-72
2022/08/15 12:26:05;;;;;;;15.52;6.72;;;25.00;62.10;;;;;;5025822;28;20059;-74
2022/08/15 12:28:31;;;;;;;18.75;6.40;;;25.00;62.50;;;;;;5023698;28;20095;-68
2022/08/15 12:31:19;;;;;;;13.63;5.93;;;25.00;63.00;;;;;;5024989;28;20105;-69
2022/08/15 12:33:45;;;;;;;11.25;5.47;;;25.10;62.60;;;;;;5027092;28;20525;-68
2022/08/15 12:36:11;;;;;;;14.63;6.10;;;25.10;62.30;;;;;;5013108;28;20040;-69
2022/08/15 12:38:40;;;;;;;12.98;6.32;;;25.20;62.10;;;;;;5024003;28;20413;-68
2022/08/15 12:41:09;;;;;;;12.05;6.05;;;25.20;61.90;;;;;;5023809;28;20056;-69
2022/08/15 12:43:35;;;;;;;13.10;5.80;;;25.20;61.50;;;;;;5028253;28;20045;-68
2022/08/15 12:46:02;;;;;;;11.50;5.65;;;25.20;61.40;;;;;;5024833;28;20112;-68
2022/08/15 12:48:29;;;;;;;11.35;5.93;;;25.30;61.40;;;;;;5025703;28;20033;-68
2022/08/15 12:50:55;;;;;;;12.80;5.90;;;25.30;61.10;;;;;;5023940;28;20029;-68
2022/08/15 12:53:20;;;;;;;12.75;6.05;;;25.40;61.20;;;;;;5023557;28;20041;-68
2022/08/15 12:55:47;;;;;;;15.98;6.50;;;25.30;61.20;;;;;;5026139;28;20490;-66
2022/08/15 12:58:13;;;;;;;15.32;6.05;;;25.30;61.20;;;;;;5023812;28;20052;-68
2022/08/15 13:00:40;;;;;;;13.65;5.53;;;25.40;61.20;;;;;;5024375;28;20017;-68
2022/08/15 13:03:28;;;;;;;10.32;5.35;;;25.40;61.20;;;;;;5023046;28;20041;-68
2022/08/15 13:06:03;;;;;;;10.23;5.38;;;25.40;61.10;;;;;;5022900;28;20021;-68
2022/08/15 13:08:29;;;;;;;11.13;6.05;;;25.50;61.30;;;;;;5026480;28;20026;-68